New Cambria, Missouri
Current Conditions -  °F | °C
As of 4:55 PM on Thursday 23 Oct 2014 (Local Time) from KIRK Reporting Station
Overcast Overcast  
Wind Chill: 65°   Ceiling: 2100
Heat Index: 65°   Visibility: 10mi
Dew Point: 58°   Wind: 6mph
Humidity: 78%   Direction: 240°WSW
Pressure: 30.05"   Gusts: NA
Location:  39.78°N, 92.75°W
Report Text: KIRK 232155Z AUTO 24005KT 10SM OVC021 18/14 A3005 RMK AO2 SLP179 T01830144
Loading
Personal Weather Stations






























Interactive Weather Map
Tropical Storm Tracking
New forecast layout! Learn more

10-Day Weather Forecast

Advertisements
Track Severe Weather on mobile